createdAt,value
2022-08-03T00:01:50.251Z,5.07
2022-08-03T00:04:17.094Z,5.03
2022-08-03T00:06:44.535Z,4.30
2022-08-03T00:09:11.758Z,5.43
2022-08-03T00:11:38.914Z,4.53
2022-08-03T00:14:06.846Z,4.70
2022-08-03T00:16:33.853Z,5.47
2022-08-03T00:19:01.580Z,5.03
2022-08-03T00:21:29.137Z,4.20
2022-08-03T00:23:56.253Z,4.90
2022-08-03T00:26:23.436Z,4.33
2022-08-03T00:28:50.815Z,5.03
2022-08-03T00:31:25.512Z,5.33
2022-08-03T00:34:04.648Z,4.07
2022-08-03T00:36:33.140Z,3.93
2022-08-03T00:39:00.010Z,5.30
2022-08-03T00:41:26.888Z,4.73
2022-08-03T00:43:53.858Z,4.60
2022-08-03T00:46:22.444Z,5.07
2022-08-03T00:48:50.909Z,4.73
2022-08-03T00:51:18.984Z,4.73
2022-08-03T00:53:46.151Z,4.17
2022-08-03T00:56:17.359Z,4.03
2022-08-03T00:58:46.238Z,4.40
2022-08-03T01:01:13.660Z,4.90
2022-08-03T01:03:40.893Z,4.77
2022-08-03T01:06:33.540Z,4.37
2022-08-03T01:09:16.814Z,4.67
2022-08-03T01:12:01.026Z,4.27
2022-08-03T01:14:33.998Z,4.30
2022-08-03T01:17:10.830Z,4.20
2022-08-03T01:19:44.972Z,3.77
2022-08-03T01:22:27.155Z,4.20
2022-08-03T01:25:07.010Z,4.30
2022-08-03T01:27:48.950Z,3.63
2022-08-03T01:30:16.169Z,3.93
2022-08-03T01:33:00.540Z,3.40
2022-08-03T01:35:46.305Z,3.90
2022-08-03T01:38:22.365Z,3.73
2022-08-03T01:40:53.953Z,4.03
2022-08-03T01:44:26.680Z,4.00
2022-08-03T01:46:13.034Z,3.40
2022-08-03T01:48:42.584Z,4.13
2022-08-03T01:51:10.703Z,3.40
2022-08-03T01:53:40.437Z,3.23
2022-08-03T01:56:08.763Z,3.63
2022-08-03T01:58:37.409Z,3.30
2022-08-03T02:01:05.856Z,2.90
2022-08-03T02:03:38.390Z,3.27
2022-08-03T02:06:59.797Z,3.40
2022-08-03T02:09:15.500Z,3.27
2022-08-03T02:11:43.479Z,3.33
2022-08-03T02:14:11.316Z,3.43
2022-08-03T02:16:38.259Z,3.17
2022-08-03T02:19:07.468Z,3.03
2022-08-03T02:21:56.637Z,3.40
2022-08-03T02:24:24.437Z,2.70
2022-08-03T02:26:55.507Z,2.90
2022-08-03T02:29:39.052Z,3.53
2022-08-03T02:32:12.533Z,3.07
2022-08-03T02:34:41.050Z,2.90
2022-08-03T02:37:10.439Z,2.90
2022-08-03T02:39:39.157Z,2.63
2022-08-03T02:42:09.587Z,3.37
2022-08-03T02:44:40.508Z,3.23
2022-08-03T02:47:10.960Z,2.47
2022-08-03T02:49:50.103Z,2.90
2022-08-03T02:52:21.739Z,3.37
2022-08-03T02:54:52.341Z,2.80
2022-08-03T02:57:21.603Z,2.83
2022-08-03T02:59:49.565Z,2.63
2022-08-03T03:02:18.340Z,3.00
2022-08-03T03:05:50.938Z,2.27
2022-08-03T03:07:35.330Z,2.33
2022-08-03T03:10:20.794Z,2.37
2022-08-03T03:12:51.353Z,3.07
2022-08-03T03:15:19.001Z,2.40
2022-08-03T03:17:46.582Z,3.33
2022-08-03T03:20:29.851Z,3.17
2022-08-03T03:23:00.272Z,2.40
2022-08-03T03:25:37.074Z,2.50
2022-08-03T03:28:06.430Z,2.80
2022-08-03T03:30:34.131Z,2.80
2022-08-03T03:33:01.250Z,2.73
2022-08-03T03:35:28.582Z,2.40
2022-08-03T03:37:56.493Z,2.50
2022-08-03T03:40:23.690Z,2.50
2022-08-03T03:42:50.993Z,2.40
2022-08-03T03:45:18.743Z,1.97
2022-08-03T03:47:45.905Z,2.40
2022-08-03T03:50:12.874Z,2.60
2022-08-03T03:52:39.772Z,2.17
2022-08-03T03:55:07.173Z,2.60
2022-08-03T03:57:35.366Z,2.70
2022-08-03T04:00:02.353Z,2.60
2022-08-03T04:02:29.447Z,1.90
2022-08-03T04:05:14.843Z,2.20
2022-08-03T04:08:10.234Z,2.53
2022-08-03T04:11:00.352Z,2.40
2022-08-03T04:13:37.712Z,2.13
2022-08-03T04:16:06.689Z,2.73
2022-08-03T04:18:36.182Z,2.27
2022-08-03T04:21:05.971Z,2.50
2022-08-03T04:23:35.771Z,2.07
2022-08-03T04:26:05.493Z,1.97
2022-08-03T04:28:33.853Z,2.60
2022-08-03T04:31:02.996Z,2.00
2022-08-03T04:33:33.116Z,2.90
2022-08-03T04:36:05.118Z,2.33
2022-08-03T04:38:36.026Z,2.40
2022-08-03T04:41:03.680Z,1.90
2022-08-03T04:43:33.617Z,2.23
2022-08-03T04:46:02.667Z,1.97
2022-08-03T04:48:29.892Z,2.10
2022-08-03T04:50:57.081Z,2.50
2022-08-03T04:53:24.039Z,1.70
2022-08-03T04:55:50.994Z,1.60
2022-08-03T04:58:17.905Z,2.47
2022-08-03T05:00:45.628Z,2.10
2022-08-03T05:03:20.048Z,2.23
2022-08-03T05:05:52.022Z,2.40
2022-08-03T05:08:20.366Z,1.73
2022-08-03T05:10:55.559Z,2.00
2022-08-03T05:13:25.793Z,2.60
2022-08-03T05:15:52.613Z,2.70
2022-08-03T05:18:19.481Z,2.30
2022-08-03T05:20:46.297Z,2.90
2022-08-03T05:23:13.162Z,2.07
2022-08-03T05:25:39.951Z,2.00
2022-08-03T05:28:13.135Z,2.20
2022-08-03T05:30:39.951Z,1.80
2022-08-03T05:33:08.965Z,2.00
2022-08-03T05:35:57.702Z,2.27
2022-08-03T05:38:28.713Z,2.00
2022-08-03T05:41:21.061Z,1.97
2022-08-03T05:43:47.647Z,1.83
2022-08-03T05:46:14.722Z,2.20
2022-08-03T05:48:42.626Z,2.10
2022-08-03T05:51:11.840Z,1.77
2022-08-03T05:53:40.148Z,1.93
2022-08-03T05:56:14.134Z,2.00
2022-08-03T05:58:47.522Z,1.40
2022-08-03T06:01:16.260Z,1.80
2022-08-03T06:03:43.467Z,1.67
2022-08-03T06:06:11.522Z,1.63
2022-08-03T06:08:39.081Z,1.67
2022-08-03T06:11:06.330Z,2.00
2022-08-03T06:13:33.955Z,2.40
2022-08-03T06:16:00.736Z,1.60
2022-08-03T06:18:27.625Z,1.70
2022-08-03T06:20:55.203Z,1.93
2022-08-03T06:23:22.490Z,1.57
2022-08-03T06:25:49.646Z,1.97
2022-08-03T06:28:51.144Z,1.90
2022-08-03T06:31:06.568Z,2.50
2022-08-03T06:34:30.907Z,1.70
2022-08-03T06:36:21.099Z,1.80
2022-08-03T06:38:48.042Z,1.60
2022-08-03T06:41:14.914Z,2.10
2022-08-03T06:44:02.643Z,1.70
2022-08-03T06:46:29.567Z,1.40
2022-08-03T06:48:56.733Z,1.87
2022-08-03T06:52:03.080Z,1.60
2022-08-03T06:54:11.021Z,1.80
2022-08-03T06:56:37.900Z,1.60
2022-08-03T06:59:04.882Z,1.43
2022-08-03T07:01:31.824Z,1.70
2022-08-03T07:03:58.754Z,1.73
2022-08-03T07:06:25.566Z,1.40
2022-08-03T07:08:55.468Z,2.00
2022-08-03T07:11:24.589Z,1.90
2022-08-03T07:13:51.472Z,1.70
2022-08-03T07:16:18.303Z,1.20
2022-08-03T07:18:45.601Z,1.23
2022-08-03T07:21:13.024Z,1.70
2022-08-03T07:23:39.993Z,1.70
2022-08-03T07:26:06.835Z,1.70
2022-08-03T07:28:34.034Z,1.30
2022-08-03T07:31:00.831Z,1.27
2022-08-03T07:33:27.674Z,1.40
2022-08-03T07:35:54.582Z,0.93
2022-08-03T07:38:21.481Z,1.30
2022-08-03T07:40:48.488Z,1.20
2022-08-03T07:43:15.390Z,1.47
2022-08-03T07:45:42.315Z,1.40
2022-08-03T07:48:12.388Z,1.20
2022-08-03T07:50:39.690Z,1.07
2022-08-03T07:53:06.597Z,1.30
2022-08-03T07:55:33.644Z,1.50
2022-08-03T07:58:21.945Z,1.13
2022-08-03T08:00:53.135Z,2.43
2022-08-03T08:03:22.025Z,1.20
2022-08-03T08:05:49.573Z,1.00
2022-08-03T08:08:16.466Z,1.03
2022-08-03T08:10:57.814Z,1.50
2022-08-03T08:13:25.735Z,1.10
2022-08-03T08:15:52.508Z,1.37
2022-08-03T08:18:19.431Z,1.23
2022-08-03T08:20:46.230Z,0.93
2022-08-03T08:23:40.858Z,1.47
2022-08-03T08:26:00.143Z,1.07
2022-08-03T08:28:32.266Z,1.30
2022-08-03T08:31:00.117Z,1.30
2022-08-03T08:33:37.242Z,1.10
2022-08-03T08:36:14.760Z,1.20
2022-08-03T08:38:42.747Z,0.97
2022-08-03T08:41:11.329Z,1.00
2022-08-03T08:43:38.413Z,1.17
2022-08-03T08:46:08.518Z,1.17
2022-08-03T08:48:40.548Z,1.00
2022-08-03T08:51:09.331Z,1.30
2022-08-03T08:53:37.433Z,1.30
2022-08-03T08:56:05.439Z,0.93
2022-08-03T08:58:38.654Z,1.33
2022-08-03T09:01:06.209Z,1.23
2022-08-03T09:03:36.407Z,0.73
2022-08-03T09:06:04.269Z,1.13
2022-08-03T09:08:32.338Z,0.87
2022-08-03T09:11:00.581Z,1.10
2022-08-03T09:13:27.657Z,0.90
2022-08-03T09:16:14.418Z,1.03
2022-08-03T09:18:53.149Z,1.13
2022-08-03T09:21:34.779Z,1.10
2022-08-03T09:24:05.720Z,0.90
2022-08-03T09:26:38.067Z,1.17
2022-08-03T09:29:14.778Z,1.03
2022-08-03T09:31:46.951Z,1.00
2022-08-03T09:34:17.347Z,1.33
2022-08-03T09:36:46.728Z,1.10
2022-08-03T09:39:15.040Z,1.23
2022-08-03T09:41:45.729Z,0.90
2022-08-03T09:44:16.229Z,1.10
2022-08-03T09:46:56.964Z,1.40
2022-08-03T09:49:24.981Z,1.40
2022-08-03T09:52:31.835Z,0.82
2022-08-03T09:54:41.140Z,0.90
2022-08-03T09:57:08.191Z,1.07
2022-08-03T09:59:35.687Z,0.90
2022-08-03T10:02:06.237Z,0.80
2022-08-03T10:04:33.205Z,1.13
2022-08-03T10:07:04.576Z,1.13
2022-08-03T10:09:31.853Z,0.83
2022-08-03T10:12:08.387Z,0.87
2022-08-03T10:14:37.901Z,1.03
2022-08-03T10:17:04.874Z,0.57
2022-08-03T10:19:31.994Z,0.77
2022-08-03T10:22:21.580Z,0.53
2022-08-03T10:25:01.028Z,0.50
2022-08-03T10:27:33.528Z,0.77
2022-08-03T10:30:05.508Z,0.47
2022-08-03T10:32:38.865Z,0.50
2022-08-03T10:35:19.791Z,0.70
2022-08-03T10:37:59.633Z,0.85
2022-08-03T10:40:49.776Z,0.85
2022-08-03T10:43:50.745Z,0.88
2022-08-03T10:46:21.703Z,0.60
2022-08-03T10:48:50.802Z,0.63
2022-08-03T10:51:17.805Z,0.80
2022-08-03T10:53:54.481Z,0.60
2022-08-03T10:56:53.535Z,0.63
2022-08-03T10:59:44.560Z,0.60
2022-08-03T11:02:12.621Z,0.57
2022-08-03T11:04:40.228Z,0.85
2022-08-03T11:07:16.732Z,0.70
2022-08-03T11:09:48.970Z,0.30
2022-08-03T11:12:30.822Z,0.85
2022-08-03T11:15:32.414Z,0.40
2022-08-03T11:18:13.505Z,0.38
2022-08-03T11:20:58.008Z,0.55
2022-08-03T11:24:03.190Z,0.50
2022-08-03T11:26:30.132Z,0.70
2022-08-03T11:29:30.204Z,0.70
2022-08-03T11:31:57.554Z,0.60
2022-08-03T11:34:25.072Z,0.50
2022-08-03T11:37:33.367Z,0.40
2022-08-03T11:40:02.757Z,0.52
2022-08-03T11:42:35.695Z,1.08
2022-08-03T11:45:08.348Z,1.00
2022-08-03T11:47:50.488Z,1.05
2022-08-03T11:50:19.971Z,0.90
2022-08-03T11:52:47.738Z,0.80
2022-08-03T11:55:16.997Z,0.75
2022-08-03T11:59:17.464Z,0.73
2022-08-03T12:00:33.359Z,0.60
2022-08-03T12:03:00.454Z,0.55
2022-08-03T12:05:51.037Z,0.80
2022-08-03T12:08:37.491Z,0.60
2022-08-03T12:11:06.818Z,0.85
2022-08-03T12:14:26.937Z,0.93
2022-08-03T12:16:32.671Z,0.73
2022-08-03T12:19:03.902Z,0.82
2022-08-03T12:21:31.570Z,0.90
2022-08-03T12:24:03.490Z,0.70
2022-08-03T12:26:43.074Z,0.60
2022-08-03T12:29:20.568Z,0.77
2022-08-03T12:31:47.822Z,0.70
2022-08-03T12:34:15.321Z,0.88
2022-08-03T12:36:56.642Z,1.23
2022-08-03T12:39:25.710Z,0.98
2022-08-03T12:41:57.258Z,1.10
2022-08-03T12:44:36.339Z,1.33
2022-08-03T12:47:04.458Z,1.10
2022-08-03T12:49:51.803Z,0.90
2022-08-03T12:52:21.337Z,1.37
2022-08-03T12:55:00.963Z,1.10
2022-08-03T12:57:44.226Z,1.20
2022-08-03T13:00:21.591Z,1.10
2022-08-03T13:03:38.577Z,1.13
2022-08-03T13:05:50.931Z,1.10
2022-08-03T13:08:22.616Z,1.50
2022-08-03T13:10:49.827Z,1.50
2022-08-03T13:13:16.910Z,1.30
2022-08-03T13:15:47.938Z,1.33
2022-08-03T13:18:17.337Z,1.20
2022-08-03T13:20:44.812Z,1.30
2022-08-03T13:23:22.049Z,3.13
2022-08-03T13:25:55.410Z,3.97
2022-08-03T13:28:23.612Z,3.95
2022-08-03T13:30:50.529Z,2.17
2022-08-03T13:33:17.687Z,1.33
2022-08-03T13:35:44.711Z,1.55
2022-08-03T13:38:11.754Z,1.80
2022-08-03T13:40:41.727Z,1.48
2022-08-03T13:43:09.054Z,1.92
2022-08-03T13:45:36.046Z,1.70
2022-08-03T13:48:02.886Z,3.05
2022-08-03T13:50:31.315Z,2.10
2022-08-03T13:52:58.654Z,2.08
2022-08-03T13:55:25.818Z,1.95
2022-08-03T13:58:02.506Z,1.80
2022-08-03T14:00:34.756Z,1.40
2022-08-03T14:03:09.212Z,1.60
2022-08-03T14:05:39.807Z,1.60
2022-08-03T14:08:07.591Z,2.00
2022-08-03T14:10:36.840Z,0.90
2022-08-03T14:13:04.638Z,1.65
2022-08-03T14:15:31.824Z,1.30
2022-08-03T14:18:04.015Z,1.27
2022-08-03T14:20:36.898Z,1.60
2022-08-03T14:23:07.120Z,2.15
2022-08-03T14:25:44.381Z,1.38
2022-08-03T14:28:18.908Z,1.60
2022-08-03T14:30:46.103Z,1.42
2022-08-03T14:33:12.944Z,1.30
2022-08-03T14:35:39.871Z,1.45
2022-08-03T14:38:06.979Z,1.20
2022-08-03T14:40:33.959Z,1.50
2022-08-03T14:43:00.824Z,1.40
2022-08-03T14:45:27.731Z,1.10
2022-08-03T14:50:29.394Z,1.30
2022-08-03T14:50:45.658Z,1.27
2022-08-03T14:53:20.441Z,1.30
2022-08-03T14:55:50.344Z,1.42
2022-08-03T14:58:22.888Z,1.58
2022-08-03T15:00:51.918Z,1.35
2022-08-03T15:03:23.059Z,1.33
2022-08-03T15:05:53.963Z,1.90
2022-08-03T15:08:21.819Z,1.70
2022-08-03T15:10:49.407Z,1.30
2022-08-03T15:13:16.987Z,1.30
2022-08-03T15:15:43.882Z,1.90
2022-08-03T15:18:10.725Z,1.50
2022-08-03T15:20:46.348Z,1.38
2022-08-03T15:23:15.445Z,1.42
2022-08-03T15:26:30.240Z,1.38
2022-08-03T15:28:30.966Z,1.20
2022-08-03T15:30:57.836Z,1.50
2022-08-03T15:33:25.042Z,1.60
2022-08-03T15:35:52.963Z,1.90
2022-08-03T15:38:22.970Z,1.58
2022-08-03T15:40:54.533Z,1.40
2022-08-03T15:43:22.671Z,1.50
2022-08-03T15:45:54.663Z,1.50
2022-08-03T15:48:36.512Z,1.27
2022-08-03T15:51:04.707Z,1.55
2022-08-03T15:53:31.745Z,1.42
2022-08-03T15:55:58.518Z,1.60
2022-08-03T15:59:12.708Z,1.50
2022-08-03T16:01:19.879Z,1.77
2022-08-03T16:03:47.113Z,1.40
2022-08-03T16:06:14.237Z,1.73
2022-08-03T16:08:41.059Z,1.40
2022-08-03T16:11:08.036Z,1.90
2022-08-03T16:14:11.960Z,1.58
2022-08-03T16:16:21.903Z,1.60
2022-08-03T16:18:48.720Z,1.63
2022-08-03T16:21:19.300Z,1.58
2022-08-03T16:23:47.496Z,1.25
2022-08-03T16:26:14.779Z,1.58
2022-08-03T16:28:41.711Z,1.48
2022-08-03T16:31:09.219Z,1.50
2022-08-03T16:33:36.397Z,1.52
2022-08-03T16:36:03.859Z,1.23
2022-08-03T16:38:31.236Z,1.13
2022-08-03T16:40:58.407Z,1.30
2022-08-03T16:43:25.258Z,0.95
2022-08-03T16:45:52.508Z,1.15
2022-08-03T16:48:19.693Z,1.42
2022-08-03T16:50:46.969Z,1.50
2022-08-03T16:53:16.666Z,1.08
2022-08-03T16:55:53.391Z,1.00
2022-08-03T16:58:34.894Z,1.15
2022-08-03T17:01:24.617Z,1.10
2022-08-03T17:04:04.720Z,1.15
2022-08-03T17:06:37.914Z,1.25
2022-08-03T17:09:18.057Z,0.88
2022-08-03T17:11:47.841Z,0.90
2022-08-03T17:14:16.863Z,1.13
2022-08-03T17:16:52.403Z,1.35
2022-08-03T17:19:23.932Z,0.90
2022-08-03T17:22:16.562Z,0.93
2022-08-03T17:24:58.221Z,1.02
2022-08-03T17:28:50.875Z,0.95
2022-08-03T17:30:21.450Z,1.13
2022-08-03T17:32:57.085Z,1.20
2022-08-03T17:35:34.418Z,1.40
2022-08-03T17:38:09.227Z,0.93
2022-08-03T17:40:43.027Z,1.05
2022-08-03T17:44:12.982Z,1.10
2022-08-03T17:46:07.073Z,1.08
2022-08-03T17:48:41.446Z,1.20
2022-08-03T17:51:30.734Z,1.10
2022-08-03T17:54:27.169Z,1.15
2022-08-03T17:57:21.821Z,1.10
2022-08-03T17:59:54.131Z,1.30
2022-08-03T18:02:55.172Z,1.42
2022-08-03T18:06:11.748Z,1.20
2022-08-03T18:08:29.762Z,1.85
2022-08-03T18:11:14.398Z,1.30
2022-08-03T18:14:15.887Z,1.67
2022-08-03T18:16:56.550Z,1.48
2022-08-03T18:20:03.399Z,1.70
2022-08-03T18:22:13.253Z,1.77
2022-08-03T18:24:42.193Z,1.98
2022-08-03T18:27:10.899Z,1.70
2022-08-03T18:29:38.124Z,1.83
2022-08-03T18:32:13.527Z,2.10
2022-08-03T18:37:52.065Z,1.77
2022-08-03T18:43:08.968Z,1.80
2022-08-03T18:45:57.639Z,2.00
2022-08-03T18:48:55.088Z,1.92
2022-08-03T18:51:33.890Z,1.88
2022-08-03T18:54:46.681Z,2.05
2022-08-03T18:57:08.315Z,2.22
2022-08-03T19:00:02.374Z,1.90
2022-08-03T19:02:36.136Z,2.10
2022-08-03T19:05:10.508Z,2.10
2022-08-03T19:07:41.735Z,2.38
2022-08-03T19:10:11.261Z,2.13
2022-08-03T19:12:57.389Z,2.33
2022-08-03T19:15:36.347Z,1.85
2022-08-03T19:18:08.850Z,2.05
2022-08-03T19:20:38.080Z,1.90
2022-08-03T19:23:06.522Z,2.10
2022-08-03T19:25:38.756Z,1.90
2022-08-03T19:28:08.772Z,2.00
2022-08-03T19:30:38.738Z,1.67
2022-08-03T19:33:15.022Z,2.50
2022-08-03T19:35:51.520Z,1.83
2022-08-03T19:38:28.726Z,1.87
2022-08-03T19:41:02.627Z,1.87
2022-08-03T19:43:53.493Z,1.90
2022-08-03T19:46:31.012Z,1.80
2022-08-03T19:49:14.522Z,2.07
2022-08-03T19:52:00.968Z,1.80
2022-08-03T19:54:45.707Z,2.10
2022-08-03T19:57:27.254Z,1.60
2022-08-03T19:59:58.576Z,1.80
2022-08-03T20:02:30.813Z,1.87
2022-08-03T20:04:59.739Z,2.03
2022-08-03T20:07:29.199Z,1.93
2022-08-03T20:09:57.578Z,2.10
2022-08-03T20:12:29.653Z,2.07
2022-08-03T20:14:59.898Z,1.87
2022-08-03T20:17:54.934Z,2.00
2022-08-03T20:20:23.486Z,1.70
2022-08-03T20:22:57.582Z,1.70
2022-08-03T20:25:38.986Z,2.27
2022-08-03T20:28:14.210Z,2.27
2022-08-03T20:30:44.395Z,2.30
2022-08-03T20:33:18.630Z,2.10
2022-08-03T20:35:49.146Z,2.17
2022-08-03T20:38:19.686Z,2.00
2022-08-03T20:40:48.064Z,2.10
2022-08-03T20:43:16.023Z,2.30
2022-08-03T20:45:59.367Z,2.40
2022-08-03T20:48:32.143Z,2.30
2022-08-03T20:50:59.481Z,2.60
2022-08-03T20:53:57.396Z,2.30
2022-08-03T20:56:15.394Z,2.00
2022-08-03T20:58:43.396Z,2.37
2022-08-03T21:01:18.092Z,2.27
2022-08-03T21:03:55.538Z,2.50
2022-08-03T21:06:27.770Z,2.23
2022-08-03T21:09:03.875Z,1.90
2022-08-03T21:11:41.664Z,2.00
2022-08-03T21:13:04.041Z,1.80
2022-08-03T21:13:06.034Z,1.92
2022-08-03T21:14:34.335Z,1.90
2022-08-03T21:17:14.129Z,2.83
2022-08-03T21:19:51.705Z,2.50
2022-08-03T21:22:23.108Z,2.17
2022-08-03T21:24:55.967Z,2.10
2022-08-03T21:27:24.147Z,2.10
2022-08-03T21:29:53.539Z,1.87
2022-08-03T21:32:32.458Z,2.67
2022-08-03T21:35:00.602Z,2.50
2022-08-03T21:37:28.366Z,2.00
2022-08-03T21:39:56.655Z,2.10
2022-08-03T21:42:24.342Z,1.80
2022-08-03T21:44:52.070Z,2.10
2022-08-03T21:47:21.460Z,2.30
2022-08-03T21:50:08.534Z,2.27
2022-08-03T21:52:42.071Z,2.13
2022-08-03T21:55:18.181Z,1.97
2022-08-03T21:57:52.534Z,2.50
2022-08-03T22:00:22.903Z,2.23
2022-08-03T22:02:55.574Z,2.73
2022-08-03T22:05:42.698Z,2.67
2022-08-03T22:08:13.511Z,2.40
2022-08-03T22:10:43.073Z,2.50
2022-08-03T22:13:10.235Z,2.10
2022-08-03T22:15:37.186Z,2.33
2022-08-03T22:18:04.894Z,2.30
2022-08-03T22:20:31.789Z,2.13
2022-08-03T22:23:02.517Z,2.40
2022-08-03T22:25:32.264Z,2.40
2022-08-03T22:28:02.050Z,3.03
2022-08-03T22:30:28.979Z,2.53
2022-08-03T22:32:56.586Z,2.70
2022-08-03T22:35:25.868Z,2.40
2022-08-03T22:37:58.492Z,2.53
2022-08-03T22:40:26.768Z,2.80
2022-08-03T22:42:54.450Z,2.60
2022-08-03T22:46:06.060Z,2.90
2022-08-03T22:48:08.622Z,2.50
2022-08-03T22:50:35.848Z,2.67
2022-08-03T22:53:03.521Z,2.83
2022-08-03T22:55:30.345Z,2.80
2022-08-03T22:57:58.195Z,2.40
2022-08-03T23:00:25.414Z,2.67
2022-08-03T23:02:55.754Z,2.23
2022-08-03T23:06:02.319Z,2.20
2022-08-03T23:08:16.903Z,2.70
2022-08-03T23:10:47.528Z,2.57
2022-08-03T23:13:18.559Z,3.07
2022-08-03T23:15:56.117Z,2.70
2022-08-03T23:18:24.254Z,2.63
2022-08-03T23:20:57.351Z,2.50
2022-08-03T23:23:24.704Z,2.77
2022-08-03T23:25:52.172Z,2.67
2022-08-03T23:28:19.254Z,2.50
2022-08-03T23:30:47.502Z,2.27
2022-08-03T23:33:16.556Z,2.90
2022-08-03T23:36:28.892Z,3.07
2022-08-03T23:38:47.607Z,2.80
2022-08-03T23:41:17.548Z,2.80
2022-08-03T23:43:53.689Z,2.30
2022-08-03T23:46:25.774Z,2.53
2022-08-03T23:48:53.842Z,3.03
2022-08-03T23:51:47.865Z,3.23
2022-08-03T23:54:26.628Z,2.80
2022-08-03T23:57:07.873Z,4.00
2022-08-03T23:59:55.644Z,2.53
